Etusivu
METAR-TAF:

METAR-TAF

Lentoasemat :

Lonesome Pine Airport

Wise, Virginia, Yhdysvallat

Leveyspiiri: 36-59N, Pituuspiiri: 082-32W, korkeus merenpinnasta: 817 m

Tämänhetkinen sää

Tämä raportti tehtiin 7 minuuttia sitten, kello 17.15 UTC
tyyntä
Lämpötila 6°C
Kosteus 24%
Ilmanpaine 1029 hPa
Näkyvyys: 16.1 km
selkeää

METAR: KLNP 221715Z AUTO 00000KT 10SM CLR 06/M13 A3039 RMK AO2

Aika: 12:22 (17:22 UTC)


TAF: puuttuu

Säähavainnot ja -ennusteet yli 4000 lentoasemalta (METAR- ja TAF-raportit).

Käytössä olevat sääasemat on merkitty karttaan keltaisilla ja punaisilla pisteillä.

Aseta hiiri pisteen päälle nähdäksesi sääaseman nimen.

Klikkaa sitten nähdäksesi säähavainnot ja -ennusteet.

Kartan vaihtaminen: klikkaa mustalla rastilla varustettuja vihreitä pisteitä, niin voit zoomata sisään; viivalla varustettua vihreää pistettä, niin voit zoomata ulos tai vihreitä nuolia, niin pääset viereisille kartoille.


METAR-TAF: